Pagrindinis puslapis
METAR-TAF:

METAR-TAF

Oro uostai :

Reikjavikas, Islandija

platuma: 64-08N, ilguma: 021-54W, Aukštis: 54 m

Dabartinis oras

Ataskaita buvo paskelbta 1 valandą ir 5 minutes, ne 08:00 UTC
Vėjas 13 kt iš Šiaurės
Temperatūra 0°C
Drėgmė 69%
Slėgis 995 hPa
Matomumas 10 km arba daugiau
Mažai debesys ne aukštis 2500 ft

METAR: BIRK 060800Z 36013KT 9999 FEW025 M00/M05 Q0995 R01/390145

Laikas: 09:05 (09:05 UTC)

Prognozė

Ataskaita buvo paskelbta 1 valandą ir 13 minutes, ne 07:52 UTC
Prognozė galioja nuo 06 metu 09 UTC su 07 metu 09 UTC
Vėjas 13 kt iš Šiaurės
Matomumas 10 km arba daugiau
nėra debesų žemiau 1500 m ir nėra kamuolinių lietaus debesų
Tapsmas
nuo 06 metu 12 UTC su 06 metu 14 UTC
Vėjas 8 kt iš Rytų
Tapsmas
nuo 07 metu 07 UTC su 07 metu 09 UTC
Vėjas 18 kt iš Rytų/Šiaurės Rytų su gūsio iki 28 kt
Matomumas 10 km arba daugiau
Išsisklaidę debesys ne aukštis 3000 ft

TAF: BIRK 060752Z 0609/0709 36013KT CAVOK TXM00/0609Z TNM05/0621Z BECMG 0612/0614 09008KT BECMG 0707/0709 07018G28KT 9999 SCT030

Orai ataskaitas ir orų prognozės (METAR, TAF).

turimą stotys yra geltonos ir raudonos taškus žemėlapyje.

Perkelti pele per norėdami pamatyti stoties vardą.

Tada spustelėkite, norėdami matyti oro stebėjimo ir prognozės.

Norėdami pakeisti žemėlapį: spustelėkite ant žalios mygtukų su juodo kryžiaus žemyn,; žalią mygtuką su brūkšneliu, jei norite nutolinti; arba žalių rodyklių gretimoms žemėlapius.


METAR-TAF: